sensor_id;sensor_type;location;lat;lon;timestamp;pressure;altitude;pressure_sealevel;temperature;humidity
56737;BME280;42618;51.226;4.910;2023-04-30T00:02:00;49715.03;;;-146.94;66.84
56737;BME280;42618;51.226;4.910;2023-04-30T00:04:27;49667.19;;;-146.94;67.67
56737;BME280;42618;51.226;4.910;2023-04-30T00:06:54;49673.19;;;-146.94;68.11
56737;BME280;42618;51.226;4.910;2023-04-30T00:09:21;49641.28;;;-146.94;69.32
56737;BME280;42618;51.226;4.910;2023-04-30T00:11:47;49661.22;;;-146.94;69.61
56737;BME280;42618;51.226;4.910;2023-04-30T00:14:14;49643.28;;;-146.94;70.61
56737;BME280;42618;51.226;4.910;2023-04-30T00:16:41;49721.03;;;-146.94;70.34
56737;BME280;42618;51.226;4.910;2023-04-30T00:19:08;49669.19;;;-146.94;71.05
56737;BME280;42618;51.226;4.910;2023-04-30T00:21:34;49705.06;;;-146.94;71.22
56737;BME280;42618;51.226;4.910;2023-04-30T00:24:01;49671.19;;;-146.94;71.71
56737;BME280;42618;51.226;4.910;2023-04-30T00:26:29;49705.06;;;-146.94;71.95
56737;BME280;42618;51.226;4.910;2023-04-30T00:28:56;49663.22;;;-146.94;72.24
56737;BME280;42618;51.226;4.910;2023-04-30T00:31:22;49693.13;;;-146.94;72.70
56737;BME280;42618;51.226;4.910;2023-04-30T00:33:49;49689.13;;;-146.94;73.13
56737;BME280;42618;51.226;4.910;2023-04-30T00:36:17;49675.19;;;-146.94;73.11
56737;BME280;42618;51.226;4.910;2023-04-30T00:38:43;49695.09;;;-146.94;74.15
56737;BME280;42618;51.226;4.910;2023-04-30T00:41:10;49689.13;;;-146.94;74.05
56737;BME280;42618;51.226;4.910;2023-04-30T00:43:37;49715.03;;;-146.94;74.16
56737;BME280;42618;51.226;4.910;2023-04-30T00:46:04;49659.22;;;-146.94;73.90
56737;BME280;42618;51.226;4.910;2023-04-30T00:48:32;49683.16;;;-146.94;74.37
56737;BME280;42618;51.226;4.910;2023-04-30T00:51:01;49675.19;;;-146.94;74.25
56737;BME280;42618;51.226;4.910;2023-04-30T00:53:30;49671.19;;;-146.94;74.92
56737;BME280;42618;51.226;4.910;2023-04-30T00:55:56;49707.06;;;-146.94;76.15
56737;BME280;42618;51.226;4.910;2023-04-30T00:58:24;49657.22;;;-146.94;76.60
56737;BME280;42618;51.226;4.910;2023-04-30T01:00:51;49693.13;;;-146.94;75.85
56737;BME280;42618;51.226;4.910;2023-04-30T01:03:19;49675.19;;;-146.94;77.27
56737;BME280;42618;51.226;4.910;2023-04-30T01:05:46;49703.09;;;-146.94;76.84
56737;BME280;42618;51.226;4.910;2023-04-30T01:08:13;49727.00;;;-146.94;76.62
56737;BME280;42618;51.226;4.910;2023-04-30T01:13:38;49701.09;;;-146.94;77.74
56737;BME280;42618;51.226;4.910;2023-04-30T01:16:18;49701.09;;;-146.94;78.07
56737;BME280;42618;51.226;4.910;2023-04-30T01:18:53;49701.09;;;-146.94;78.10
56737;BME280;42618;51.226;4.910;2023-04-30T01:21:23;49703.09;;;-146.94;78.45
56737;BME280;42618;51.226;4.910;2023-04-30T01:23:54;49671.19;;;-146.94;79.12
56737;BME280;42618;51.226;4.910;2023-04-30T01:29:35;49695.09;;;-146.94;79.40
56737;BME280;42618;51.226;4.910;2023-04-30T01:32:04;49695.09;;;-146.94;79.45
56737;BME280;42618;51.226;4.910;2023-04-30T01:34:31;49679.16;;;-146.94;79.85
56737;BME280;42618;51.226;4.910;2023-04-30T01:37:05;49695.09;;;-146.94;79.54
56737;BME280;42618;51.226;4.910;2023-04-30T01:42:21;49707.06;;;-146.94;80.59
56737;BME280;42618;51.226;4.910;2023-04-30T01:47:35;49691.13;;;-146.94;82.73
56737;BME280;42618;51.226;4.910;2023-04-30T01:52:58;49713.06;;;-146.94;83.57
56737;BME280;42618;51.226;4.910;2023-04-30T01:55:43;49675.19;;;-146.94;83.69
56737;BME280;42618;51.226;4.910;2023-04-30T01:58:15;49707.06;;;-146.94;83.62
56737;BME280;42618;51.226;4.910;2023-04-30T02:00:42;49707.06;;;-146.94;84.20
56737;BME280;42618;51.226;4.910;2023-04-30T02:03:08;49687.13;;;-146.94;84.46
56737;BME280;42618;51.226;4.910;2023-04-30T02:05:36;49687.13;;;-146.94;84.98
56737;BME280;42618;51.226;4.910;2023-04-30T02:08:02;49725.00;;;-146.94;85.66
56737;BME280;42618;51.226;4.910;2023-04-30T02:10:29;49731.00;;;-146.94;86.62
56737;BME280;42618;51.226;4.910;2023-04-30T02:12:56;49685.13;;;-146.94;86.19
56737;BME280;42618;51.226;4.910;2023-04-30T02:15:23;49681.16;;;-146.94;85.99
56737;BME280;42618;51.226;4.910;2023-04-30T02:17:49;49673.19;;;-146.94;85.81
56737;BME280;42618;51.226;4.910;2023-04-30T02:20:16;49695.09;;;-146.94;85.48
56737;BME280;42618;51.226;4.910;2023-04-30T02:22:44;49723.03;;;-146.94;86.46
56737;BME280;42618;51.226;4.910;2023-04-30T02:25:11;49719.03;;;-146.94;86.54
56737;BME280;42618;51.226;4.910;2023-04-30T02:27:39;49691.13;;;-146.94;86.80
56737;BME280;42618;51.226;4.910;2023-04-30T02:30:06;49734.97;;;-146.94;86.92
56737;BME280;42618;51.226;4.910;2023-04-30T02:32:33;49738.97;;;-146.94;87.12
56737;BME280;42618;51.226;4.910;2023-04-30T02:35:00;49719.03;;;-146.94;87.34
56737;BME280;42618;51.226;4.910;2023-04-30T02:37:27;49693.13;;;-146.94;87.39
56737;BME280;42618;51.226;4.910;2023-04-30T02:39:54;49738.97;;;-146.94;87.72
56737;BME280;42618;51.226;4.910;2023-04-30T02:42:21;49687.13;;;-146.94;86.85
56737;BME280;42618;51.226;4.910;2023-04-30T02:44:48;49705.06;;;-146.94;87.75
56737;BME280;42618;51.226;4.910;2023-04-30T02:47:14;49731.00;;;-146.94;88.60
56737;BME280;42618;51.226;4.910;2023-04-30T02:49:41;49697.09;;;-146.94;89.38
56737;BME280;42618;51.226;4.910;2023-04-30T02:52:08;49701.09;;;-146.94;89.53
56737;BME280;42618;51.226;4.910;2023-04-30T02:54:35;49705.06;;;-146.94;89.97
56737;BME280;42618;51.226;4.910;2023-04-30T02:57:02;49693.13;;;-146.94;89.65
56737;BME280;42618;51.226;4.910;2023-04-30T02:59:29;49709.06;;;-146.94;90.02
56737;BME280;42618;51.226;4.910;2023-04-30T03:01:56;49731.00;;;-146.94;89.94
56737;BME280;42618;51.226;4.910;2023-04-30T03:04:23;49713.06;;;-146.94;89.35
56737;BME280;42618;51.226;4.910;2023-04-30T03:06:50;49719.03;;;-146.94;89.98
56737;BME280;42618;51.226;4.910;2023-04-30T03:09:16;49695.09;;;-146.94;90.06
56737;BME280;42618;51.226;4.910;2023-04-30T03:11:43;49723.03;;;-146.94;90.43
56737;BME280;42618;51.226;4.910;2023-04-30T03:14:10;49723.03;;;-146.94;90.37
56737;BME280;42618;51.226;4.910;2023-04-30T03:16:37;49723.03;;;-146.94;90.84
56737;BME280;42618;51.226;4.910;2023-04-30T03:19:03;49742.94;;;-146.94;90.50
56737;BME280;42618;51.226;4.910;2023-04-30T03:21:30;49711.06;;;-146.94;90.53
56737;BME280;42618;51.226;4.910;2023-04-30T03:23:58;49752.91;;;-146.94;90.55
56737;BME280;42618;51.226;4.910;2023-04-30T03:26:24;49703.09;;;-146.94;90.63
56737;BME280;42618;51.226;4.910;2023-04-30T03:28:51;49719.03;;;-146.94;90.95
56737;BME280;42618;51.226;4.910;2023-04-30T03:31:20;49715.03;;;-146.94;90.25
56737;BME280;42618;51.226;4.910;2023-04-30T03:33:47;49727.00;;;-146.94;90.69
56737;BME280;42618;51.226;4.910;2023-04-30T03:36:14;49719.03;;;-146.94;90.71
56737;BME280;42618;51.226;4.910;2023-04-30T03:38:41;49711.06;;;-146.94;91.00
56737;BME280;42618;51.226;4.910;2023-04-30T03:41:08;49711.06;;;-146.94;91.56
56737;BME280;42618;51.226;4.910;2023-04-30T03:43:36;49723.03;;;-146.94;92.14
56737;BME280;42618;51.226;4.910;2023-04-30T03:46:03;49697.09;;;-146.94;92.23
56737;BME280;42618;51.226;4.910;2023-04-30T03:48:30;49717.03;;;-146.94;93.14
56737;BME280;42618;51.226;4.910;2023-04-30T03:50:57;49701.09;;;-146.94;93.44
56737;BME280;42618;51.226;4.910;2023-04-30T03:53:23;49687.13;;;-146.94;94.20
56737;BME280;42618;51.226;4.910;2023-04-30T03:55:53;49736.97;;;-146.94;94.11
56737;BME280;42618;51.226;4.910;2023-04-30T03:58:20;49713.06;;;-146.94;94.53
56737;BME280;42618;51.226;4.910;2023-04-30T04:00:47;49723.03;;;-146.94;94.82
56737;BME280;42618;51.226;4.910;2023-04-30T04:03:15;49685.13;;;-146.94;94.90
56737;BME280;42618;51.226;4.910;2023-04-30T04:05:42;49707.06;;;-146.94;94.77
56737;BME280;42618;51.226;4.910;2023-04-30T04:08:10;49742.94;;;-146.94;94.97
56737;BME280;42618;51.226;4.910;2023-04-30T04:10:38;49711.06;;;-146.94;95.07
56737;BME280;42618;51.226;4.910;2023-04-30T04:13:07;49689.13;;;-146.94;94.82
56737;BME280;42618;51.226;4.910;2023-04-30T04:15:34;49760.91;;;-146.94;94.96
56737;BME280;42618;51.226;4.910;2023-04-30T04:18:01;49725.00;;;-146.94;95.40
56737;BME280;42618;51.226;4.910;2023-04-30T04:20:29;49709.06;;;-146.94;94.97
56737;BME280;42618;51.226;4.910;2023-04-30T04:22:55;49675.19;;;-146.94;94.66
56737;BME280;42618;51.226;4.910;2023-04-30T04:25:23;49703.09;;;-146.94;95.04
56737;BME280;42618;51.226;4.910;2023-04-30T04:27:50;49693.13;;;-146.94;94.89
56737;BME280;42618;51.226;4.910;2023-04-30T04:30:17;49691.13;;;-146.94;95.14
56737;BME280;42618;51.226;4.910;2023-04-30T04:32:46;49727.00;;;-146.94;94.73
56737;BME280;42618;51.226;4.910;2023-04-30T04:35:15;49703.09;;;-146.94;95.21
56737;BME280;42618;51.226;4.910;2023-04-30T04:37:43;49734.97;;;-146.94;95.37
56737;BME280;42618;51.226;4.910;2023-04-30T04:40:10;49738.97;;;-146.94;94.77
56737;BME280;42618;51.226;4.910;2023-04-30T04:42:38;49703.09;;;-146.94;94.49
56737;BME280;42618;51.226;4.910;2023-04-30T04:45:05;49709.06;;;-146.94;94.65
56737;BME280;42618;51.226;4.910;2023-04-30T04:47:33;49734.97;;;-146.94;94.47
56737;BME280;42618;51.226;4.910;2023-04-30T04:50:01;49736.97;;;-146.94;94.30
56737;BME280;42618;51.226;4.910;2023-04-30T04:52:28;49719.03;;;-146.94;94.24
56737;BME280;42618;51.226;4.910;2023-04-30T04:54:55;49683.16;;;-146.94;94.15
56737;BME280;42618;51.226;4.910;2023-04-30T04:57:21;49695.09;;;-146.94;94.18
56737;BME280;42618;51.226;4.910;2023-04-30T04:59:48;49727.00;;;-146.94;94.23
56737;BME280;42618;51.226;4.910;2023-04-30T05:02:15;49705.06;;;-146.94;94.41
56737;BME280;42618;51.226;4.910;2023-04-30T05:04:42;49719.03;;;-146.94;94.77
56737;BME280;42618;51.226;4.910;2023-04-30T05:07:08;49699.09;;;-146.94;94.70
56737;BME280;42618;51.226;4.910;2023-04-30T05:09:35;49715.03;;;-146.94;94.52
56737;BME280;42618;51.226;4.910;2023-04-30T05:12:02;49713.06;;;-146.94;94.07
56737;BME280;42618;51.226;4.910;2023-04-30T05:14:29;49736.97;;;-146.94;94.21
56737;BME280;42618;51.226;4.910;2023-04-30T05:16:56;49677.16;;;-146.94;93.67
56737;BME280;42618;51.226;4.910;2023-04-30T05:19:22;49695.09;;;-146.94;93.45
56737;BME280;42618;51.226;4.910;2023-04-30T05:21:49;49693.13;;;-146.94;93.30
56737;BME280;42618;51.226;4.910;2023-04-30T05:24:16;49744.94;;;-146.94;92.94
56737;BME280;42618;51.226;4.910;2023-04-30T05:26:43;49703.09;;;-146.94;93.30
56737;BME280;42618;51.226;4.910;2023-04-30T05:29:11;49754.91;;;-146.94;93.18
56737;BME280;42618;51.226;4.910;2023-04-30T05:31:37;49667.19;;;-146.94;92.53
56737;BME280;42618;51.226;4.910;2023-04-30T05:34:04;49711.06;;;-146.94;93.01
56737;BME280;42618;51.226;4.910;2023-04-30T05:36:31;49705.06;;;-146.94;92.70
56737;BME280;42618;51.226;4.910;2023-04-30T05:38:58;49701.09;;;-146.94;91.95
56737;BME280;42618;51.226;4.910;2023-04-30T05:41:24;49725.00;;;-146.94;91.58
56737;BME280;42618;51.226;4.910;2023-04-30T05:43:51;49707.06;;;-146.94;91.62
56737;BME280;42618;51.226;4.910;2023-04-30T05:46:18;49719.03;;;-146.94;91.47
56737;BME280;42618;51.226;4.910;2023-04-30T05:48:45;49681.16;;;-146.94;91.07
56737;BME280;42618;51.226;4.910;2023-04-30T05:51:12;49723.03;;;-146.94;91.04
56737;BME280;42618;51.226;4.910;2023-04-30T05:53:38;49675.19;;;-146.94;90.93
56737;BME280;42618;51.226;4.910;2023-04-30T05:56:05;49733.00;;;-146.94;90.59
56737;BME280;42618;51.226;4.910;2023-04-30T05:58:32;49734.97;;;-146.94;90.74
56737;BME280;42618;51.226;4.910;2023-04-30T06:00:59;49707.06;;;-146.94;90.04
56737;BME280;42618;51.226;4.910;2023-04-30T06:03:25;49711.06;;;-146.94;89.93
56737;BME280;42618;51.226;4.910;2023-04-30T06:05:53;49691.13;;;-146.94;89.10
56737;BME280;42618;51.226;4.910;2023-04-30T06:08:20;49677.16;;;-146.94;88.57
56737;BME280;42618;51.226;4.910;2023-04-30T06:10:47;49707.06;;;-146.94;88.38
56737;BME280;42618;51.226;4.910;2023-04-30T06:13:14;49657.22;;;-146.94;88.14
56737;BME280;42618;51.226;4.910;2023-04-30T06:15:40;49661.22;;;-146.94;86.95
56737;BME280;42618;51.226;4.910;2023-04-30T06:18:07;49691.13;;;-146.94;86.61
56737;BME280;42618;51.226;4.910;2023-04-30T06:20:34;49719.03;;;-146.94;85.86
56737;BME280;42618;51.226;4.910;2023-04-30T06:23:00;49663.22;;;-146.94;85.13
56737;BME280;42618;51.226;4.910;2023-04-30T06:25:29;49697.09;;;-146.94;85.04
56737;BME280;42618;51.226;4.910;2023-04-30T06:27:56;49695.09;;;-146.94;85.38
56737;BME280;42618;51.226;4.910;2023-04-30T06:30:22;49711.06;;;-146.94;84.93
56737;BME280;42618;51.226;4.910;2023-04-30T06:32:49;49727.00;;;-146.94;84.00
56737;BME280;42618;51.226;4.910;2023-04-30T06:35:16;49723.03;;;-146.94;82.99
56737;BME280;42618;51.226;4.910;2023-04-30T06:37:43;49667.19;;;-146.94;82.62
56737;BME280;42618;51.226;4.910;2023-04-30T06:40:10;49695.09;;;-146.94;82.31
56737;BME280;42618;51.226;4.910;2023-04-30T06:42:36;49681.16;;;-146.94;82.31
56737;BME280;42618;51.226;4.910;2023-04-30T06:45:04;49703.09;;;-146.94;81.00
56737;BME280;42618;51.226;4.910;2023-04-30T06:47:34;49653.25;;;-146.94;81.40
56737;BME280;42618;51.226;4.910;2023-04-30T06:50:04;49683.16;;;-146.94;80.15
56737;BME280;42618;51.226;4.910;2023-04-30T06:52:30;49671.19;;;-146.94;80.09
56737;BME280;42618;51.226;4.910;2023-04-30T06:54:57;49687.13;;;-146.94;79.68
56737;BME280;42618;51.226;4.910;2023-04-30T06:57:24;49713.06;;;-146.94;79.96
56737;BME280;42618;51.226;4.910;2023-04-30T06:59:51;49679.16;;;-146.94;77.86
56737;BME280;42618;51.226;4.910;2023-04-30T07:02:18;49689.13;;;-146.94;76.64
56737;BME280;42618;51.226;4.910;2023-04-30T07:04:47;49673.19;;;-146.94;77.24
56737;BME280;42618;51.226;4.910;2023-04-30T07:07:15;49647.25;;;-146.94;75.35
56737;BME280;42618;51.226;4.910;2023-04-30T07:09:41;49643.28;;;-146.94;75.02
56737;BME280;42618;51.226;4.910;2023-04-30T07:12:08;49663.22;;;-146.94;74.07
56737;BME280;42618;51.226;4.910;2023-04-30T07:14:36;49655.25;;;-146.94;73.89
56737;BME280;42618;51.226;4.910;2023-04-30T07:17:03;49671.19;;;-146.94;72.99
56737;BME280;42618;51.226;4.910;2023-04-30T07:19:30;49639.28;;;-146.94;71.35
56737;BME280;42618;51.226;4.910;2023-04-30T07:21:57;49645.28;;;-146.94;69.54
56737;BME280;42618;51.226;4.910;2023-04-30T07:24:24;49643.28;;;-146.94;68.86
56737;BME280;42618;51.226;4.910;2023-04-30T07:26:51;49631.31;;;-146.94;68.11
56737;BME280;42618;51.226;4.910;2023-04-30T07:29:18;49683.16;;;-146.94;66.31
56737;BME280;42618;51.226;4.910;2023-04-30T07:31:44;49651.25;;;-146.94;67.21
56737;BME280;42618;51.226;4.910;2023-04-30T07:34:11;49595.44;;;-146.94;65.51
56737;BME280;42618;51.226;4.910;2023-04-30T07:36:38;49657.22;;;-146.94;64.21
56737;BME280;42618;51.226;4.910;2023-04-30T07:39:05;49683.16;;;-146.94;63.58
56737;BME280;42618;51.226;4.910;2023-04-30T07:41:33;49655.25;;;-146.94;62.43
56737;BME280;42618;51.226;4.910;2023-04-30T07:44:00;49643.28;;;-146.94;61.64
56737;BME280;42618;51.226;4.910;2023-04-30T07:46:27;49645.28;;;-146.94;60.69
56737;BME280;42618;51.226;4.910;2023-04-30T07:48:54;49683.16;;;-146.94;57.80
56737;BME280;42618;51.226;4.910;2023-04-30T07:51:20;49629.31;;;-146.94;59.90
56737;BME280;42618;51.226;4.910;2023-04-30T07:53:47;49643.28;;;-146.94;56.93
56737;BME280;42618;51.226;4.910;2023-04-30T07:56:14;49605.41;;;-146.94;56.01
56737;BME280;42618;51.226;4.910;2023-04-30T07:58:41;49643.28;;;-146.94;56.35
56737;BME280;42618;51.226;4.910;2023-04-30T08:01:08;49639.28;;;-146.94;54.62
56737;BME280;42618;51.226;4.910;2023-04-30T08:03:34;49631.31;;;-146.94;54.68
56737;BME280;42618;51.226;4.910;2023-04-30T08:06:03;49631.31;;;-146.94;54.31
56737;BME280;42618;51.226;4.910;2023-04-30T08:08:30;49619.34;;;-146.94;54.54
56737;BME280;42618;51.226;4.910;2023-04-30T08:10:57;49629.31;;;-146.94;53.25
56737;BME280;42618;51.226;4.910;2023-04-30T08:13:23;49615.38;;;-146.94;53.32
56737;BME280;42618;51.226;4.910;2023-04-30T08:15:50;49615.38;;;-146.94;52.26
56737;BME280;42618;51.226;4.910;2023-04-30T08:18:17;49621.34;;;-146.94;52.05
56737;BME280;42618;51.226;4.910;2023-04-30T08:20:44;49669.19;;;-146.94;52.23
56737;BME280;42618;51.226;4.910;2023-04-30T08:23:11;49619.34;;;-146.94;50.49
56737;BME280;42618;51.226;4.910;2023-04-30T08:25:37;49597.44;;;-146.94;51.00
56737;BME280;42618;51.226;4.910;2023-04-30T08:28:05;49615.38;;;-146.94;49.40
56737;BME280;42618;51.226;4.910;2023-04-30T08:30:32;49601.41;;;-146.94;49.03
56737;BME280;42618;51.226;4.910;2023-04-30T08:32:59;49629.31;;;-146.94;48.73
56737;BME280;42618;51.226;4.910;2023-04-30T08:35:25;49649.25;;;-146.94;47.24
56737;BME280;42618;51.226;4.910;2023-04-30T08:37:55;49637.28;;;-146.94;46.21
56737;BME280;42618;51.226;4.910;2023-04-30T08:40:21;49615.38;;;-146.94;47.16
56737;BME280;42618;51.226;4.910;2023-04-30T08:43:08;49585.47;;;-146.94;47.13
56737;BME280;42618;51.226;4.910;2023-04-30T08:45:37;49623.34;;;-146.94;45.80
56737;BME280;42618;51.226;4.910;2023-04-30T08:48:04;49643.28;;;-146.94;46.31
56737;BME280;42618;51.226;4.910;2023-04-30T08:50:33;49629.31;;;-146.94;45.43
56737;BME280;42618;51.226;4.910;2023-04-30T08:53:01;49601.41;;;-146.94;43.76
56737;BME280;42618;51.226;4.910;2023-04-30T08:55:28;49615.38;;;-146.94;44.14
56737;BME280;42618;51.226;4.910;2023-04-30T08:57:55;49607.41;;;-146.94;43.89
56737;BME280;42618;51.226;4.910;2023-04-30T09:00:22;49641.28;;;-146.94;43.10
56737;BME280;42618;51.226;4.910;2023-04-30T09:02:48;49623.34;;;-146.94;42.13
56737;BME280;42618;51.226;4.910;2023-04-30T09:05:15;49627.31;;;-146.94;42.33
56737;BME280;42618;51.226;4.910;2023-04-30T09:07:44;49619.34;;;-146.94;41.73
56737;BME280;42618;51.226;4.910;2023-04-30T09:10:16;49595.44;;;-146.94;43.01
56737;BME280;42618;51.226;4.910;2023-04-30T09:12:44;49605.41;;;-146.94;43.05
56737;BME280;42618;51.226;4.910;2023-04-30T09:15:23;49597.44;;;-146.94;42.80
56737;BME280;42618;51.226;4.910;2023-04-30T09:18:14;49603.41;;;-146.94;42.56
56737;BME280;42618;51.226;4.910;2023-04-30T09:21:03;49603.41;;;-146.94;41.77
56737;BME280;42618;51.226;4.910;2023-04-30T09:23:31;49585.47;;;-146.94;41.57
56737;BME280;42618;51.226;4.910;2023-04-30T09:25:57;49575.50;;;-146.94;41.60
56737;BME280;42618;51.226;4.910;2023-04-30T09:28:24;49607.41;;;-146.94;41.75
56737;BME280;42618;51.226;4.910;2023-04-30T09:30:55;49601.41;;;-146.94;40.58
56737;BME280;42618;51.226;4.910;2023-04-30T09:33:22;49589.44;;;-146.94;40.73
56737;BME280;42618;51.226;4.910;2023-04-30T09:35:49;49579.47;;;-146.94;41.43
56737;BME280;42618;51.226;4.910;2023-04-30T09:38:26;49583.47;;;-146.94;39.90
56737;BME280;42618;51.226;4.910;2023-04-30T09:40:53;49587.47;;;-146.94;39.89
56737;BME280;42618;51.226;4.910;2023-04-30T09:43:20;49585.47;;;-146.94;40.53
56737;BME280;42618;51.226;4.910;2023-04-30T09:45:48;49579.47;;;-146.94;40.03
56737;BME280;42618;51.226;4.910;2023-04-30T09:48:21;49565.53;;;-146.94;39.75
56737;BME280;42618;51.226;4.910;2023-04-30T09:50:49;49603.41;;;-146.94;39.19
56737;BME280;42618;51.226;4.910;2023-04-30T09:53:16;49591.44;;;-146.94;40.02
56737;BME280;42618;51.226;4.910;2023-04-30T09:55:46;49587.47;;;-146.94;39.81
56737;BME280;42618;51.226;4.910;2023-04-30T09:58:13;49587.47;;;-146.94;38.86
56737;BME280;42618;51.226;4.910;2023-04-30T10:00:41;49577.50;;;-146.94;39.72
56737;BME280;42618;51.226;4.910;2023-04-30T10:03:13;49583.47;;;-146.94;39.63
56737;BME280;42618;51.226;4.910;2023-04-30T10:05:45;49571.50;;;-146.94;39.20
56737;BME280;42618;51.226;4.910;2023-04-30T10:08:28;49609.38;;;-146.94;39.19
56737;BME280;42618;51.226;4.910;2023-04-30T10:11:06;49571.50;;;-146.94;39.31
56737;BME280;42618;51.226;4.910;2023-04-30T10:13:42;49559.56;;;-146.94;39.07
56737;BME280;42618;51.226;4.910;2023-04-30T10:16:14;49571.50;;;-146.94;37.97
56737;BME280;42618;51.226;4.910;2023-04-30T10:18:45;49535.63;;;-146.94;37.40
56737;BME280;42618;51.226;4.910;2023-04-30T10:21:17;49605.41;;;-146.94;37.49
56737;BME280;42618;51.226;4.910;2023-04-30T10:23:47;49575.50;;;-146.94;38.18
56737;BME280;42618;51.226;4.910;2023-04-30T10:26:14;49565.53;;;-146.94;37.72
56737;BME280;42618;51.226;4.910;2023-04-30T10:28:43;49589.44;;;-146.94;38.23
56737;BME280;42618;51.226;4.910;2023-04-30T10:31:11;49569.50;;;-146.94;38.25
56737;BME280;42618;51.226;4.910;2023-04-30T10:36:36;49607.41;;;-146.94;37.53
56737;BME280;42618;51.226;4.910;2023-04-30T10:39:05;49571.50;;;-146.94;37.85
56737;BME280;42618;51.226;4.910;2023-04-30T10:41:32;49585.47;;;-146.94;38.24
56737;BME280;42618;51.226;4.910;2023-04-30T10:44:01;49545.59;;;-146.94;37.45
56737;BME280;42618;51.226;4.910;2023-04-30T10:46:28;49583.47;;;-146.94;37.08
56737;BME280;42618;51.226;4.910;2023-04-30T10:48:55;49551.56;;;-146.94;38.13
56737;BME280;42618;51.226;4.910;2023-04-30T10:51:22;49547.59;;;-146.94;36.32
56737;BME280;42618;51.226;4.910;2023-04-30T10:53:53;49557.56;;;-146.94;36.47
56737;BME280;42618;51.226;4.910;2023-04-30T10:56:31;49543.59;;;-146.94;35.50
56737;BME280;42618;51.226;4.910;2023-04-30T10:58:59;49563.53;;;-146.94;35.68
56737;BME280;42618;51.226;4.910;2023-04-30T11:01:29;49551.56;;;-146.94;36.79
56737;BME280;42618;51.226;4.910;2023-04-30T11:04:09;49555.56;;;-146.94;37.71
56737;BME280;42618;51.226;4.910;2023-04-30T11:09:41;49529.66;;;-146.94;35.26
56737;BME280;42618;51.226;4.910;2023-04-30T11:12:13;49507.72;;;-146.94;35.66
56737;BME280;42618;51.226;4.910;2023-04-30T11:14:43;49565.53;;;-146.94;35.41
56737;BME280;42618;51.226;4.910;2023-04-30T11:17:11;49531.63;;;-146.94;35.73
56737;BME280;42618;51.226;4.910;2023-04-30T11:19:45;49531.63;;;-146.94;35.18
56737;BME280;42618;51.226;4.910;2023-04-30T11:22:23;49511.72;;;-146.94;34.43
56737;BME280;42618;51.226;4.910;2023-04-30T11:25:09;49559.56;;;-146.94;36.02
56737;BME280;42618;51.226;4.910;2023-04-30T11:27:38;49567.53;;;-146.94;36.14
56737;BME280;42618;51.226;4.910;2023-04-30T11:30:16;49511.72;;;-146.94;35.07
56737;BME280;42618;51.226;4.910;2023-04-30T11:32:44;49521.69;;;-146.94;34.01
56737;BME280;42618;51.226;4.910;2023-04-30T11:35:16;49519.69;;;-146.94;34.65
56737;BME280;42618;51.226;4.910;2023-04-30T11:37:44;49507.72;;;-146.94;34.88
56737;BME280;42618;51.226;4.910;2023-04-30T11:40:12;49519.69;;;-146.94;34.12
56737;BME280;42618;51.226;4.910;2023-04-30T11:42:41;49527.66;;;-146.94;34.64
56737;BME280;42618;51.226;4.910;2023-04-30T11:45:14;49527.66;;;-146.94;34.34
56737;BME280;42618;51.226;4.910;2023-04-30T11:47:45;49545.59;;;-146.94;34.36
56737;BME280;42618;51.226;4.910;2023-04-30T11:50:14;49523.66;;;-146.94;34.61
56737;BME280;42618;51.226;4.910;2023-04-30T11:52:48;49535.63;;;-146.94;34.75
56737;BME280;42618;51.226;4.910;2023-04-30T11:55:17;49527.66;;;-146.94;34.00
56737;BME280;42618;51.226;4.910;2023-04-30T11:57:49;49555.56;;;-146.94;34.38
56737;BME280;42618;51.226;4.910;2023-04-30T12:00:26;49529.66;;;-146.94;34.70
56737;BME280;42618;51.226;4.910;2023-04-30T12:02:54;49531.63;;;-146.94;34.04
56737;BME280;42618;51.226;4.910;2023-04-30T12:05:26;49551.56;;;-146.94;34.44
56737;BME280;42618;51.226;4.910;2023-04-30T12:07:59;49493.75;;;-146.94;33.22
56737;BME280;42618;51.226;4.910;2023-04-30T12:10:28;49509.72;;;-146.94;34.31
56737;BME280;42618;51.226;4.910;2023-04-30T12:12:56;49531.63;;;-146.94;33.85
56737;BME280;42618;51.226;4.910;2023-04-30T12:15:25;49521.69;;;-146.94;33.57
56737;BME280;42618;51.226;4.910;2023-04-30T12:17:54;49507.72;;;-146.94;33.46
56737;BME280;42618;51.226;4.910;2023-04-30T12:20:23;49557.56;;;-146.94;33.10
56737;BME280;42618;51.226;4.910;2023-04-30T12:22:50;49535.63;;;-146.94;33.43
56737;BME280;42618;51.226;4.910;2023-04-30T12:25:20;49507.72;;;-146.94;33.37
56737;BME280;42618;51.226;4.910;2023-04-30T12:27:48;49537.63;;;-146.94;33.72
56737;BME280;42618;51.226;4.910;2023-04-30T12:30:20;49493.75;;;-146.94;33.26
56737;BME280;42618;51.226;4.910;2023-04-30T12:32:49;49507.72;;;-146.94;32.77
56737;BME280;42618;51.226;4.910;2023-04-30T12:35:19;49523.66;;;-146.94;33.11
56737;BME280;42618;51.226;4.910;2023-04-30T12:37:52;49513.69;;;-146.94;32.40
56737;BME280;42618;51.226;4.910;2023-04-30T12:40:26;49503.72;;;-146.94;31.79
56737;BME280;42618;51.226;4.910;2023-04-30T12:43:06;49531.63;;;-146.94;31.47
56737;BME280;42618;51.226;4.910;2023-04-30T12:45:50;49519.69;;;-146.94;32.31
56737;BME280;42618;51.226;4.910;2023-04-30T12:48:19;49575.50;;;-146.94;31.98
56737;BME280;42618;51.226;4.910;2023-04-30T12:50:53;49501.75;;;-146.94;32.36
56737;BME280;42618;51.226;4.910;2023-04-30T12:53:20;49521.69;;;-146.94;31.91
56737;BME280;42618;51.226;4.910;2023-04-30T12:56:13;49479.81;;;-146.94;31.56
56737;BME280;42618;51.226;4.910;2023-04-30T12:58:44;49507.72;;;-146.94;31.82
56737;BME280;42618;51.226;4.910;2023-04-30T13:01:16;49523.66;;;-146.94;32.22
56737;BME280;42618;51.226;4.910;2023-04-30T13:03:43;49493.75;;;-146.94;31.12
56737;BME280;42618;51.226;4.910;2023-04-30T13:06:10;49493.75;;;-146.94;31.66
56737;BME280;42618;51.226;4.910;2023-04-30T13:08:37;49525.66;;;-146.94;31.73